sensor_id;sensor_type;location;lat;lon;timestamp;temperature;humidity
28548;DHT22;68292;49.600;8.746;2023-05-10T00:02:44;21.30;63.40
28548;DHT22;68292;49.600;8.746;2023-05-10T00:05:31;21.30;63.40
28548;DHT22;68292;49.600;8.746;2023-05-10T00:08:19;21.30;63.40
28548;DHT22;68292;49.600;8.746;2023-05-10T00:11:05;21.30;63.40
28548;DHT22;68292;49.600;8.746;2023-05-10T00:13:52;21.30;63.40
28548;DHT22;68292;49.600;8.746;2023-05-10T00:16:39;21.30;63.40
28548;DHT22;68292;49.600;8.746;2023-05-10T00:19:26;21.30;63.40
28548;DHT22;68292;49.600;8.746;2023-05-10T00:22:12;21.30;63.40
28548;DHT22;68292;49.600;8.746;2023-05-10T00:25:00;21.30;63.40
28548;DHT22;68292;49.600;8.746;2023-05-10T00:27:47;21.20;63.40
28548;DHT22;68292;49.600;8.746;2023-05-10T00:30:34;21.20;63.30
28548;DHT22;68292;49.600;8.746;2023-05-10T00:33:21;21.20;63.40
28548;DHT22;68292;49.600;8.746;2023-05-10T00:36:08;21.20;63.30
28548;DHT22;68292;49.600;8.746;2023-05-10T00:38:55;21.20;63.40
28548;DHT22;68292;49.600;8.746;2023-05-10T00:41:43;21.20;63.40
28548;DHT22;68292;49.600;8.746;2023-05-10T00:44:30;21.20;63.40
28548;DHT22;68292;49.600;8.746;2023-05-10T00:47:17;21.20;63.40
28548;DHT22;68292;49.600;8.746;2023-05-10T00:50:05;21.20;63.40
28548;DHT22;68292;49.600;8.746;2023-05-10T00:52:52;21.20;63.30
28548;DHT22;68292;49.600;8.746;2023-05-10T00:55:40;21.20;63.30
28548;DHT22;68292;49.600;8.746;2023-05-10T00:58:28;21.20;63.20
28548;DHT22;68292;49.600;8.746;2023-05-10T01:01:16;21.20;63.20
28548;DHT22;68292;49.600;8.746;2023-05-10T01:04:03;21.20;63.20
28548;DHT22;68292;49.600;8.746;2023-05-10T01:06:50;21.20;63.20
28548;DHT22;68292;49.600;8.746;2023-05-10T01:09:38;21.20;63.20
28548;DHT22;68292;49.600;8.746;2023-05-10T01:12:25;21.20;63.20
28548;DHT22;68292;49.600;8.746;2023-05-10T01:15:14;21.20;63.20
28548;DHT22;68292;49.600;8.746;2023-05-10T01:18:03;21.20;63.20
28548;DHT22;68292;49.600;8.746;2023-05-10T01:20:57;21.10;63.20
28548;DHT22;68292;49.600;8.746;2023-05-10T01:24:14;21.20;63.10
28548;DHT22;68292;49.600;8.746;2023-05-10T01:27:26;21.10;63.10
28548;DHT22;68292;49.600;8.746;2023-05-10T01:30:42;21.10;63.00
28548;DHT22;68292;49.600;8.746;2023-05-10T01:33:59;21.10;62.90
28548;DHT22;68292;49.600;8.746;2023-05-10T01:36:54;21.10;62.90
28548;DHT22;68292;49.600;8.746;2023-05-10T01:39:47;21.10;62.90
28548;DHT22;68292;49.600;8.746;2023-05-10T01:42:42;21.10;62.90
28548;DHT22;68292;49.600;8.746;2023-05-10T01:45:38;21.10;62.90
28548;DHT22;68292;49.600;8.746;2023-05-10T01:48:30;21.10;62.90
28548;DHT22;68292;49.600;8.746;2023-05-10T01:51:23;21.10;62.90
28548;DHT22;68292;49.600;8.746;2023-05-10T01:54:13;21.10;62.90
28548;DHT22;68292;49.600;8.746;2023-05-10T01:57:03;21.10;62.90
28548;DHT22;68292;49.600;8.746;2023-05-10T01:59:53;21.10;63.00
28548;DHT22;68292;49.600;8.746;2023-05-10T02:02:44;21.10;63.00
28548;DHT22;68292;49.600;8.746;2023-05-10T02:05:33;21.10;63.10
28548;DHT22;68292;49.600;8.746;2023-05-10T02:08:22;21.10;63.00
28548;DHT22;68292;49.600;8.746;2023-05-10T02:11:11;21.10;63.00
28548;DHT22;68292;49.600;8.746;2023-05-10T02:14:00;21.10;62.90
28548;DHT22;68292;49.600;8.746;2023-05-10T02:16:47;21.10;62.90
28548;DHT22;68292;49.600;8.746;2023-05-10T02:19:38;21.10;62.80
28548;DHT22;68292;49.600;8.746;2023-05-10T02:22:26;21.10;62.80
28548;DHT22;68292;49.600;8.746;2023-05-10T02:25:15;21.10;62.80
28548;DHT22;68292;49.600;8.746;2023-05-10T02:28:06;21.10;62.70
28548;DHT22;68292;49.600;8.746;2023-05-10T02:30:54;21.10;62.60
28548;DHT22;68292;49.600;8.746;2023-05-10T02:33:42;21.00;62.50
28548;DHT22;68292;49.600;8.746;2023-05-10T02:36:30;21.00;62.40
28548;DHT22;68292;49.600;8.746;2023-05-10T02:39:19;21.00;62.40
28548;DHT22;68292;49.600;8.746;2023-05-10T02:42:08;21.00;62.40
28548;DHT22;68292;49.600;8.746;2023-05-10T02:44:59;21.00;62.40
28548;DHT22;68292;49.600;8.746;2023-05-10T02:47:46;21.00;62.40
28548;DHT22;68292;49.600;8.746;2023-05-10T02:50:33;21.00;62.40
28548;DHT22;68292;49.600;8.746;2023-05-10T02:53:23;21.00;62.40
28548;DHT22;68292;49.600;8.746;2023-05-10T02:56:22;21.00;62.30
28548;DHT22;68292;49.600;8.746;2023-05-10T02:59:12;21.00;62.30
28548;DHT22;68292;49.600;8.746;2023-05-10T03:01:59;21.00;62.30
28548;DHT22;68292;49.600;8.746;2023-05-10T03:04:47;21.00;62.40
28548;DHT22;68292;49.600;8.746;2023-05-10T03:07:34;21.00;62.30
28548;DHT22;68292;49.600;8.746;2023-05-10T03:10:23;21.00;62.30
28548;DHT22;68292;49.600;8.746;2023-05-10T03:13:22;21.00;62.20
28548;DHT22;68292;49.600;8.746;2023-05-10T03:16:24;21.00;62.10
28548;DHT22;68292;49.600;8.746;2023-05-10T03:19:17;21.00;62.10
28548;DHT22;68292;49.600;8.746;2023-05-10T03:22:10;21.00;62.20
28548;DHT22;68292;49.600;8.746;2023-05-10T03:25:00;21.00;62.20
28548;DHT22;68292;49.600;8.746;2023-05-10T03:27:52;21.00;62.20
28548;DHT22;68292;49.600;8.746;2023-05-10T03:30:40;20.90;62.10
28548;DHT22;68292;49.600;8.746;2023-05-10T03:33:30;20.90;62.20
28548;DHT22;68292;49.600;8.746;2023-05-10T03:36:18;20.90;62.00
28548;DHT22;68292;49.600;8.746;2023-05-10T03:39:05;20.90;62.00
28548;DHT22;68292;49.600;8.746;2023-05-10T03:41:51;20.90;61.90
28548;DHT22;68292;49.600;8.746;2023-05-10T03:44:38;21.00;62.00
28548;DHT22;68292;49.600;8.746;2023-05-10T03:47:27;20.90;62.00
28548;DHT22;68292;49.600;8.746;2023-05-10T03:50:17;20.90;62.00
28548;DHT22;68292;49.600;8.746;2023-05-10T03:53:05;20.90;61.90
28548;DHT22;68292;49.600;8.746;2023-05-10T03:55:52;20.90;61.90
28548;DHT22;68292;49.600;8.746;2023-05-10T03:58:39;20.90;61.90
28548;DHT22;68292;49.600;8.746;2023-05-10T04:01:25;20.90;62.00
28548;DHT22;68292;49.600;8.746;2023-05-10T04:04:12;20.90;61.90
28548;DHT22;68292;49.600;8.746;2023-05-10T04:07:00;20.90;61.90
28548;DHT22;68292;49.600;8.746;2023-05-10T04:09:47;20.90;61.90
28548;DHT22;68292;49.600;8.746;2023-05-10T04:12:34;20.90;62.30
28548;DHT22;68292;49.600;8.746;2023-05-10T04:15:20;20.90;61.90
28548;DHT22;68292;49.600;8.746;2023-05-10T04:18:07;20.90;61.90
28548;DHT22;68292;49.600;8.746;2023-05-10T04:20:54;20.90;61.90
28548;DHT22;68292;49.600;8.746;2023-05-10T04:23:42;20.90;61.90
28548;DHT22;68292;49.600;8.746;2023-05-10T04:26:28;20.90;61.80
28548;DHT22;68292;49.600;8.746;2023-05-10T04:29:15;20.90;61.80
28548;DHT22;68292;49.600;8.746;2023-05-10T04:32:01;20.90;61.80
28548;DHT22;68292;49.600;8.746;2023-05-10T04:34:48;20.90;61.80
28548;DHT22;68292;49.600;8.746;2023-05-10T04:37:36;20.90;61.80
28548;DHT22;68292;49.600;8.746;2023-05-10T04:40:24;20.90;61.60
28548;DHT22;68292;49.600;8.746;2023-05-10T04:43:10;20.90;61.50
28548;DHT22;68292;49.600;8.746;2023-05-10T04:45:57;20.90;61.60
28548;DHT22;68292;49.600;8.746;2023-05-10T04:48:44;20.80;61.40
28548;DHT22;68292;49.600;8.746;2023-05-10T04:51:30;20.80;61.40
28548;DHT22;68292;49.600;8.746;2023-05-10T04:54:17;20.80;61.40
28548;DHT22;68292;49.600;8.746;2023-05-10T04:57:05;20.80;61.30
28548;DHT22;68292;49.600;8.746;2023-05-10T04:59:52;20.80;61.20
28548;DHT22;68292;49.600;8.746;2023-05-10T05:02:42;20.80;61.20
28548;DHT22;68292;49.600;8.746;2023-05-10T05:05:29;20.80;61.20
28548;DHT22;68292;49.600;8.746;2023-05-10T05:08:16;20.80;62.10
28548;DHT22;68292;49.600;8.746;2023-05-10T05:11:02;20.80;61.30
28548;DHT22;68292;49.600;8.746;2023-05-10T05:13:51;20.80;61.20
28548;DHT22;68292;49.600;8.746;2023-05-10T05:16:37;20.80;61.20
28548;DHT22;68292;49.600;8.746;2023-05-10T05:19:24;20.80;61.20
28548;DHT22;68292;49.600;8.746;2023-05-10T05:22:11;20.80;61.30
28548;DHT22;68292;49.600;8.746;2023-05-10T05:24:58;20.80;61.40
28548;DHT22;68292;49.600;8.746;2023-05-10T05:27:44;20.80;61.40
28548;DHT22;68292;49.600;8.746;2023-05-10T05:30:32;20.80;62.40
28548;DHT22;68292;49.600;8.746;2023-05-10T05:33:19;20.80;61.50
28548;DHT22;68292;49.600;8.746;2023-05-10T05:36:06;20.80;61.40
28548;DHT22;68292;49.600;8.746;2023-05-10T05:38:53;20.80;61.30
28548;DHT22;68292;49.600;8.746;2023-05-10T05:41:39;20.80;61.40
28548;DHT22;68292;49.600;8.746;2023-05-10T05:44:26;20.80;61.40
28548;DHT22;68292;49.600;8.746;2023-05-10T05:47:15;20.80;61.50
28548;DHT22;68292;49.600;8.746;2023-05-10T05:50:02;20.80;61.30
28548;DHT22;68292;49.600;8.746;2023-05-10T05:52:48;20.80;61.40
28548;DHT22;68292;49.600;8.746;2023-05-10T05:55:35;20.80;61.40
28548;DHT22;68292;49.600;8.746;2023-05-10T05:58:22;20.80;61.40
28548;DHT22;68292;49.600;8.746;2023-05-10T06:01:08;20.80;61.40
28548;DHT22;68292;49.600;8.746;2023-05-10T06:03:56;20.80;61.30
28548;DHT22;68292;49.600;8.746;2023-05-10T06:06:43;20.80;61.20
28548;DHT22;68292;49.600;8.746;2023-05-10T06:09:30;20.80;61.30
28548;DHT22;68292;49.600;8.746;2023-05-10T06:12:16;20.90;61.40
28548;DHT22;68292;49.600;8.746;2023-05-10T06:15:07;20.90;61.60
28548;DHT22;68292;49.600;8.746;2023-05-10T06:17:55;20.90;61.40
28548;DHT22;68292;49.600;8.746;2023-05-10T06:20:43;20.90;61.50
28548;DHT22;68292;49.600;8.746;2023-05-10T06:23:30;20.90;61.60
28548;DHT22;68292;49.600;8.746;2023-05-10T06:26:17;20.90;61.60
28548;DHT22;68292;49.600;8.746;2023-05-10T06:29:03;20.90;61.50
28548;DHT22;68292;49.600;8.746;2023-05-10T06:31:50;20.90;61.40
28548;DHT22;68292;49.600;8.746;2023-05-10T06:34:36;20.90;61.40
28548;DHT22;68292;49.600;8.746;2023-05-10T06:37:24;20.90;61.30
28548;DHT22;68292;49.600;8.746;2023-05-10T06:40:11;20.90;61.40
28548;DHT22;68292;49.600;8.746;2023-05-10T06:42:58;20.90;61.40
28548;DHT22;68292;49.600;8.746;2023-05-10T06:45:44;20.90;61.40
28548;DHT22;68292;49.600;8.746;2023-05-10T06:48:31;20.90;61.40
28548;DHT22;68292;49.600;8.746;2023-05-10T06:51:17;20.90;61.50
28548;DHT22;68292;49.600;8.746;2023-05-10T06:54:07;20.90;61.60
28548;DHT22;68292;49.600;8.746;2023-05-10T06:56:54;20.90;61.60
28548;DHT22;68292;49.600;8.746;2023-05-10T06:59:40;20.90;61.60
28548;DHT22;68292;49.600;8.746;2023-05-10T07:02:27;20.90;61.50
28548;DHT22;68292;49.600;8.746;2023-05-10T07:05:14;20.90;61.60
28548;DHT22;68292;49.600;8.746;2023-05-10T07:08:01;20.90;61.60
28548;DHT22;68292;49.600;8.746;2023-05-10T07:10:49;20.90;61.90
28548;DHT22;68292;49.600;8.746;2023-05-10T07:13:36;21.00;61.70
28548;DHT22;68292;49.600;8.746;2023-05-10T07:16:24;21.00;61.70
28548;DHT22;68292;49.600;8.746;2023-05-10T07:19:11;21.00;61.80
28548;DHT22;68292;49.600;8.746;2023-05-10T07:21:58;21.00;62.00
28548;DHT22;68292;49.600;8.746;2023-05-10T07:24:44;21.00;61.90
28548;DHT22;68292;49.600;8.746;2023-05-10T07:27:33;21.00;61.80
28548;DHT22;68292;49.600;8.746;2023-05-10T07:30:20;21.00;61.70
28548;DHT22;68292;49.600;8.746;2023-05-10T07:33:07;21.00;61.80
28548;DHT22;68292;49.600;8.746;2023-05-10T07:35:54;21.10;61.80
28548;DHT22;68292;49.600;8.746;2023-05-10T07:38:40;21.10;61.80
28548;DHT22;68292;49.600;8.746;2023-05-10T07:41:27;21.10;61.80
28548;DHT22;68292;49.600;8.746;2023-05-10T07:44:15;21.10;61.60
28548;DHT22;68292;49.600;8.746;2023-05-10T07:47:04;21.10;61.50
28548;DHT22;68292;49.600;8.746;2023-05-10T07:49:50;21.10;61.70
28548;DHT22;68292;49.600;8.746;2023-05-10T07:52:37;21.10;61.70
28548;DHT22;68292;49.600;8.746;2023-05-10T07:55:23;21.10;61.70
28548;DHT22;68292;49.600;8.746;2023-05-10T07:58:10;21.10;62.00
28548;DHT22;68292;49.600;8.746;2023-05-10T08:00:58;21.10;62.00
28548;DHT22;68292;49.600;8.746;2023-05-10T08:03:44;21.20;62.30
28548;DHT22;68292;49.600;8.746;2023-05-10T08:06:31;21.20;62.10
28548;DHT22;68292;49.600;8.746;2023-05-10T08:09:18;21.20;62.10
28548;DHT22;68292;49.600;8.746;2023-05-10T08:12:08;21.20;62.00
28548;DHT22;68292;49.600;8.746;2023-05-10T08:14:55;21.20;61.80
28548;DHT22;68292;49.600;8.746;2023-05-10T08:17:43;21.30;61.90
28548;DHT22;68292;49.600;8.746;2023-05-10T08:20:30;21.30;61.90
28548;DHT22;68292;49.600;8.746;2023-05-10T08:23:16;21.30;61.80
28548;DHT22;68292;49.600;8.746;2023-05-10T08:26:03;21.30;61.70
28548;DHT22;68292;49.600;8.746;2023-05-10T08:28:50;21.30;61.60
28548;DHT22;68292;49.600;8.746;2023-05-10T08:31:37;21.40;61.60
28548;DHT22;68292;49.600;8.746;2023-05-10T08:34:24;21.40;61.60
28548;DHT22;68292;49.600;8.746;2023-05-10T08:37:11;21.40;61.60
28548;DHT22;68292;49.600;8.746;2023-05-10T08:39:58;21.40;61.80
28548;DHT22;68292;49.600;8.746;2023-05-10T08:42:49;21.40;61.70
28548;DHT22;68292;49.600;8.746;2023-05-10T08:45:53;21.40;61.80
28548;DHT22;68292;49.600;8.746;2023-05-10T08:48:41;21.40;61.70
28548;DHT22;68292;49.600;8.746;2023-05-10T08:51:35;21.40;61.60
28548;DHT22;68292;49.600;8.746;2023-05-10T08:54:25;21.50;61.80
28548;DHT22;68292;49.600;8.746;2023-05-10T08:57:12;21.50;61.80
28548;DHT22;68292;49.600;8.746;2023-05-10T09:00:00;21.50;61.90
28548;DHT22;68292;49.600;8.746;2023-05-10T09:02:52;21.50;62.10
28548;DHT22;68292;49.600;8.746;2023-05-10T09:05:42;21.50;62.40
28548;DHT22;68292;49.600;8.746;2023-05-10T09:08:31;21.50;62.40
28548;DHT22;68292;49.600;8.746;2023-05-10T09:11:17;21.50;62.30
28548;DHT22;68292;49.600;8.746;2023-05-10T09:14:06;21.60;62.40
28548;DHT22;68292;49.600;8.746;2023-05-10T09:16:55;21.60;62.50
28548;DHT22;68292;49.600;8.746;2023-05-10T09:19:42;21.60;62.60
28548;DHT22;68292;49.600;8.746;2023-05-10T09:22:30;21.70;62.80
28548;DHT22;68292;49.600;8.746;2023-05-10T09:25:19;21.70;62.90
28548;DHT22;68292;49.600;8.746;2023-05-10T09:28:07;21.70;63.10
28548;DHT22;68292;49.600;8.746;2023-05-10T09:30:54;21.80;63.20
28548;DHT22;68292;49.600;8.746;2023-05-10T09:33:44;21.90;63.00
28548;DHT22;68292;49.600;8.746;2023-05-10T09:36:31;21.90;62.80
28548;DHT22;68292;49.600;8.746;2023-05-10T09:39:17;22.00;62.60
28548;DHT22;68292;49.600;8.746;2023-05-10T09:42:07;22.10;62.20
28548;DHT22;68292;49.600;8.746;2023-05-10T09:44:58;22.10;61.70
28548;DHT22;68292;49.600;8.746;2023-05-10T09:47:46;22.10;62.60
28548;DHT22;68292;49.600;8.746;2023-05-10T09:50:33;22.10;61.40
28548;DHT22;68292;49.600;8.746;2023-05-10T09:53:20;22.10;60.90
28548;DHT22;68292;49.600;8.746;2023-05-10T09:56:06;22.10;60.80
28548;DHT22;68292;49.600;8.746;2023-05-10T09:59:03;22.00;60.50
28548;DHT22;68292;49.600;8.746;2023-05-10T10:01:51;22.00;60.30
28548;DHT22;68292;49.600;8.746;2023-05-10T10:04:39;22.00;60.40
28548;DHT22;68292;49.600;8.746;2023-05-10T10:07:27;21.90;60.20
28548;DHT22;68292;49.600;8.746;2023-05-10T10:10:14;21.90;60.30
28548;DHT22;68292;49.600;8.746;2023-05-10T10:13:02;21.80;60.30
28548;DHT22;68292;49.600;8.746;2023-05-10T10:15:52;21.80;60.50
28548;DHT22;68292;49.600;8.746;2023-05-10T10:18:41;21.70;60.80
28548;DHT22;68292;49.600;8.746;2023-05-10T10:21:28;21.70;61.20
28548;DHT22;68292;49.600;8.746;2023-05-10T10:24:15;21.70;61.70
28548;DHT22;68292;49.600;8.746;2023-05-10T10:27:09;21.70;62.00
28548;DHT22;68292;49.600;8.746;2023-05-10T10:30:06;21.70;62.50
28548;DHT22;68292;49.600;8.746;2023-05-10T10:33:18;21.70;63.30
28548;DHT22;68292;49.600;8.746;2023-05-10T10:36:40;21.70;62.40
28548;DHT22;68292;49.600;8.746;2023-05-10T10:39:28;21.70;61.90
28548;DHT22;68292;49.600;8.746;2023-05-10T10:42:44;21.70;61.70
28548;DHT22;68292;49.600;8.746;2023-05-10T10:45:32;21.70;61.50
28548;DHT22;68292;49.600;8.746;2023-05-10T10:48:23;21.70;61.00
28548;DHT22;68292;49.600;8.746;2023-05-10T10:51:10;21.70;60.60
28548;DHT22;68292;49.600;8.746;2023-05-10T10:54:08;21.70;60.70
28548;DHT22;68292;49.600;8.746;2023-05-10T10:57:11;21.70;60.50
28548;DHT22;68292;49.600;8.746;2023-05-10T11:00:21;21.60;60.30
28548;DHT22;68292;49.600;8.746;2023-05-10T11:03:13;21.60;60.20
28548;DHT22;68292;49.600;8.746;2023-05-10T11:06:03;21.60;60.40
28548;DHT22;68292;49.600;8.746;2023-05-10T11:08:51;21.50;60.50
28548;DHT22;68292;49.600;8.746;2023-05-10T11:11:50;21.50;60.70
28548;DHT22;68292;49.600;8.746;2023-05-10T11:14:40;21.50;60.90
28548;DHT22;68292;49.600;8.746;2023-05-10T11:17:27;21.50;60.80
28548;DHT22;68292;49.600;8.746;2023-05-10T11:20:15;21.50;61.00
28548;DHT22;68292;49.600;8.746;2023-05-10T11:23:15;21.50;61.10
28548;DHT22;68292;49.600;8.746;2023-05-10T11:26:02;21.50;61.00
28548;DHT22;68292;49.600;8.746;2023-05-10T11:28:52;21.50;61.20
28548;DHT22;68292;49.600;8.746;2023-05-10T11:31:44;21.50;61.20
28548;DHT22;68292;49.600;8.746;2023-05-10T11:34:32;21.50;61.50
28548;DHT22;68292;49.600;8.746;2023-05-10T11:37:19;21.50;61.30
28548;DHT22;68292;49.600;8.746;2023-05-10T11:40:08;21.50;61.40
28548;DHT22;68292;49.600;8.746;2023-05-10T11:42:56;21.50;61.30
28548;DHT22;68292;49.600;8.746;2023-05-10T11:45:42;21.50;61.20
28548;DHT22;68292;49.600;8.746;2023-05-10T11:48:29;21.50;61.20
28548;DHT22;68292;49.600;8.746;2023-05-10T11:51:20;21.50;61.30
28548;DHT22;68292;49.600;8.746;2023-05-10T11:54:08;21.50;61.40
28548;DHT22;68292;49.600;8.746;2023-05-10T11:56:57;21.50;61.60
28548;DHT22;68292;49.600;8.746;2023-05-10T11:59:43;21.50;61.50
28548;DHT22;68292;49.600;8.746;2023-05-10T12:02:30;21.60;61.50
28548;DHT22;68292;49.600;8.746;2023-05-10T12:05:17;21.60;61.20
28548;DHT22;68292;49.600;8.746;2023-05-10T12:08:11;21.60;61.20
28548;DHT22;68292;49.600;8.746;2023-05-10T12:11:05;21.60;61.10
28548;DHT22;68292;49.600;8.746;2023-05-10T12:13:57;21.60;61.10
28548;DHT22;68292;49.600;8.746;2023-05-10T12:16:44;21.70;60.70
28548;DHT22;68292;49.600;8.746;2023-05-10T12:19:37;21.60;60.70
28548;DHT22;68292;49.600;8.746;2023-05-10T12:22:23;21.70;60.40
28548;DHT22;68292;49.600;8.746;2023-05-10T12:25:10;21.60;60.50
28548;DHT22;68292;49.600;8.746;2023-05-10T12:27:58;21.60;60.60
28548;DHT22;68292;49.600;8.746;2023-05-10T12:30:47;21.60;60.70
28548;DHT22;68292;49.600;8.746;2023-05-10T12:33:37;21.60;60.60
28548;DHT22;68292;49.600;8.746;2023-05-10T12:36:26;21.60;60.40
28548;DHT22;68292;49.600;8.746;2023-05-10T12:39:13;21.60;60.50
28548;DHT22;68292;49.600;8.746;2023-05-10T12:42:00;21.60;60.70
28548;DHT22;68292;49.600;8.746;2023-05-10T12:44:46;21.70;61.20
28548;DHT22;68292;49.600;8.746;2023-05-10T12:47:34;21.70;61.40
28548;DHT22;68292;49.600;8.746;2023-05-10T12:50:21;21.70;61.00
28548;DHT22;68292;49.600;8.746;2023-05-10T12:53:09;21.70;61.10
28548;DHT22;68292;49.600;8.746;2023-05-10T12:55:56;21.70;61.10
28548;DHT22;68292;49.600;8.746;2023-05-10T12:58:43;21.70;61.00
28548;DHT22;68292;49.600;8.746;2023-05-10T13:01:33;21.70;60.40
28548;DHT22;68292;49.600;8.746;2023-05-10T13:04:21;21.80;60.30
28548;DHT22;68292;49.600;8.746;2023-05-10T13:07:08;21.80;60.30
28548;DHT22;68292;49.600;8.746;2023-05-10T13:09:55;21.80;60.20
28548;DHT22;68292;49.600;8.746;2023-05-10T13:12:42;21.80;60.40
28548;DHT22;68292;49.600;8.746;2023-05-10T13:15:29;21.80;61.30
28548;DHT22;68292;49.600;8.746;2023-05-10T13:18:16;21.80;60.40
28548;DHT22;68292;49.600;8.746;2023-05-10T13:21:04;21.90;60.40
28548;DHT22;68292;49.600;8.746;2023-05-10T13:23:50;21.90;60.50
28548;DHT22;68292;49.600;8.746;2023-05-10T13:26:37;21.90;60.60
28548;DHT22;68292;49.600;8.746;2023-05-10T13:29:24;21.90;60.20
28548;DHT22;68292;49.600;8.746;2023-05-10T13:32:10;21.90;60.40
28548;DHT22;68292;49.600;8.746;2023-05-10T13:34:57;21.90;60.30
28548;DHT22;68292;49.600;8.746;2023-05-10T13:37:45;21.90;59.90
28548;DHT22;68292;49.600;8.746;2023-05-10T13:40:31;21.90;59.70
28548;DHT22;68292;49.600;8.746;2023-05-10T13:43:18;21.90;59.60
28548;DHT22;68292;49.600;8.746;2023-05-10T13:46:05;21.90;59.70
28548;DHT22;68292;49.600;8.746;2023-05-10T13:48:51;21.90;59.90
28548;DHT22;68292;49.600;8.746;2023-05-10T13:51:38;21.90;59.70
28548;DHT22;68292;49.600;8.746;2023-05-10T13:54:26;21.90;59.60
28548;DHT22;68292;49.600;8.746;2023-05-10T13:57:14;21.90;59.40
28548;DHT22;68292;49.600;8.746;2023-05-10T14:00:02;21.90;59.20
28548;DHT22;68292;49.600;8.746;2023-05-10T14:02:52;21.90;59.10
28548;DHT22;68292;49.600;8.746;2023-05-10T14:05:39;21.90;59.00
28548;DHT22;68292;49.600;8.746;2023-05-10T14:08:26;21.90;59.10
28548;DHT22;68292;49.600;8.746;2023-05-10T14:11:15;21.90;59.20
28548;DHT22;68292;49.600;8.746;2023-05-10T14:14:02;21.90;59.10
28548;DHT22;68292;49.600;8.746;2023-05-10T14:16:49;21.90;58.90
28548;DHT22;68292;49.600;8.746;2023-05-10T14:19:36;21.90;58.90
28548;DHT22;68292;49.600;8.746;2023-05-10T14:22:22;21.90;58.70
28548;DHT22;68292;49.600;8.746;2023-05-10T14:25:09;21.90;58.40
28548;DHT22;68292;49.600;8.746;2023-05-10T14:27:57;21.90;58.40
28548;DHT22;68292;49.600;8.746;2023-05-10T14:30:44;21.90;58.10
28548;DHT22;68292;49.600;8.746;2023-05-10T14:33:31;21.90;58.20
28548;DHT22;68292;49.600;8.746;2023-05-10T14:36:18;21.90;57.90
28548;DHT22;68292;49.600;8.746;2023-05-10T14:39:04;21.90;57.70
28548;DHT22;68292;49.600;8.746;2023-05-10T14:41:51;21.90;57.50
28548;DHT22;68292;49.600;8.746;2023-05-10T14:44:39;21.90;57.50
28548;DHT22;68292;49.600;8.746;2023-05-10T14:47:26;21.90;57.40
28548;DHT22;68292;49.600;8.746;2023-05-10T14:50:12;21.90;57.30
28548;DHT22;68292;49.600;8.746;2023-05-10T14:53:19;21.90;57.30
28548;DHT22;68292;49.600;8.746;2023-05-10T14:56:06;21.90;57.30
28548;DHT22;68292;49.600;8.746;2023-05-10T14:58:53;21.90;57.40
28548;DHT22;68292;49.600;8.746;2023-05-10T15:01:41;21.90;57.20
28548;DHT22;68292;49.600;8.746;2023-05-10T15:04:28;21.90;57.00
28548;DHT22;68292;49.600;8.746;2023-05-10T15:07:16;21.90;56.90
28548;DHT22;68292;49.600;8.746;2023-05-10T15:10:04;21.90;56.90
28548;DHT22;68292;49.600;8.746;2023-05-10T15:12:51;21.90;56.80
28548;DHT22;68292;49.600;8.746;2023-05-10T15:15:38;21.90;56.60
28548;DHT22;68292;49.600;8.746;2023-05-10T15:18:26;21.90;56.50
28548;DHT22;68292;49.600;8.746;2023-05-10T15:21:13;21.90;56.50
28548;DHT22;68292;49.600;8.746;2023-05-10T15:23:59;21.90;56.50
28548;DHT22;68292;49.600;8.746;2023-05-10T15:26:46;21.90;56.40
28548;DHT22;68292;49.600;8.746;2023-05-10T15:29:32;21.90;56.30
28548;DHT22;68292;49.600;8.746;2023-05-10T15:32:19;21.90;56.30
28548;DHT22;68292;49.600;8.746;2023-05-10T15:35:08;21.90;56.30
28548;DHT22;68292;49.600;8.746;2023-05-10T15:37:55;21.90;55.90
28548;DHT22;68292;49.600;8.746;2023-05-10T15:40:42;21.90;55.90
28548;DHT22;68292;49.600;8.746;2023-05-10T15:43:29;21.90;55.60
28548;DHT22;68292;49.600;8.746;2023-05-10T15:46:15;21.90;55.50
28548;DHT22;68292;49.600;8.746;2023-05-10T15:49:02;21.90;55.20
28548;DHT22;68292;49.600;8.746;2023-05-10T15:51:50;21.90;55.10
28548;DHT22;68292;49.600;8.746;2023-05-10T15:54:37;21.90;54.90
28548;DHT22;68292;49.600;8.746;2023-05-10T15:57:23;21.90;55.10
28548;DHT22;68292;49.600;8.746;2023-05-10T16:00:11;21.90;55.20
28548;DHT22;68292;49.600;8.746;2023-05-10T16:02:58;21.90;55.10
28548;DHT22;68292;49.600;8.746;2023-05-10T16:05:45;21.80;54.80
28548;DHT22;68292;49.600;8.746;2023-05-10T16:08:33;21.80;54.80
28548;DHT22;68292;49.600;8.746;2023-05-10T16:11:20;21.80;54.30
28548;DHT22;68292;49.600;8.746;2023-05-10T16:14:07;21.80;54.60
28548;DHT22;68292;49.600;8.746;2023-05-10T16:16:54;21.80;54.90
28548;DHT22;68292;49.600;8.746;2023-05-10T16:19:42;21.80;55.00
28548;DHT22;68292;49.600;8.746;2023-05-10T16:22:28;21.80;54.60
28548;DHT22;68292;49.600;8.746;2023-05-10T16:25:16;21.80;54.30
28548;DHT22;68292;49.600;8.746;2023-05-10T16:28:04;21.80;55.20
28548;DHT22;68292;49.600;8.746;2023-05-10T16:30:50;21.90;54.70
28548;DHT22;68292;49.600;8.746;2023-05-10T16:33:37;21.80;54.80
28548;DHT22;68292;49.600;8.746;2023-05-10T16:36:24;21.80;54.90
28548;DHT22;68292;49.600;8.746;2023-05-10T16:39:10;21.80;54.80
28548;DHT22;68292;49.600;8.746;2023-05-10T16:41:58;21.80;54.70
28548;DHT22;68292;49.600;8.746;2023-05-10T16:44:45;21.80;54.40
28548;DHT22;68292;49.600;8.746;2023-05-10T16:47:31;21.80;54.40
28548;DHT22;68292;49.600;8.746;2023-05-10T16:50:18;21.80;54.40
28548;DHT22;68292;49.600;8.746;2023-05-10T16:53:05;21.80;54.60
28548;DHT22;68292;49.600;8.746;2023-05-10T16:55:51;21.80;54.80
28548;DHT22;68292;49.600;8.746;2023-05-10T16:58:39;21.80;55.00
28548;DHT22;68292;49.600;8.746;2023-05-10T17:01:26;21.80;54.70
28548;DHT22;68292;49.600;8.746;2023-05-10T17:04:12;21.80;54.90
28548;DHT22;68292;49.600;8.746;2023-05-10T17:06:59;21.80;54.90
28548;DHT22;68292;49.600;8.746;2023-05-10T17:09:46;21.80;54.90
28548;DHT22;68292;49.600;8.746;2023-05-10T17:12:33;21.80;55.10
28548;DHT22;68292;49.600;8.746;2023-05-10T17:15:21;21.80;55.10
28548;DHT22;68292;49.600;8.746;2023-05-10T17:18:08;21.80;54.80
28548;DHT22;68292;49.600;8.746;2023-05-10T17:20:55;21.80;54.80
28548;DHT22;68292;49.600;8.746;2023-05-10T17:23:41;21.80;54.70
28548;DHT22;68292;49.600;8.746;2023-05-10T17:26:28;21.80;54.20
28548;DHT22;68292;49.600;8.746;2023-05-10T17:29:15;21.80;54.10
28548;DHT22;68292;49.600;8.746;2023-05-10T17:32:03;21.80;54.20
28548;DHT22;68292;49.600;8.746;2023-05-10T17:34:50;21.70;53.90
28548;DHT22;68292;49.600;8.746;2023-05-10T17:37:36;21.70;54.40
28548;DHT22;68292;49.600;8.746;2023-05-10T17:40:23;21.70;54.50
28548;DHT22;68292;49.600;8.746;2023-05-10T17:43:09;21.70;54.00
28548;DHT22;68292;49.600;8.746;2023-05-10T17:45:56;21.70;53.80